createdAt,value
2023-02-11T00:00:21.547Z,52.58
2023-02-11T00:02:48.285Z,52.60
2023-02-11T00:05:15.218Z,51.95
2023-02-11T00:07:41.885Z,51.98
2023-02-11T00:10:09.684Z,52.39
2023-02-11T00:12:36.815Z,52.51
2023-02-11T00:15:04.188Z,53.65
2023-02-11T00:17:31.405Z,52.91
2023-02-11T00:19:58.071Z,52.82
2023-02-11T00:22:24.717Z,53.50
2023-02-11T00:24:51.337Z,53.95
2023-02-11T00:27:18.047Z,54.20
2023-02-11T00:29:44.659Z,54.01
2023-02-11T00:32:11.280Z,54.13
2023-02-11T00:34:37.920Z,53.96
2023-02-11T00:37:04.796Z,54.09
2023-02-11T00:39:31.475Z,54.10
2023-02-11T00:41:58.334Z,53.77
2023-02-11T00:44:25.155Z,53.75
2023-02-11T00:46:51.781Z,53.94
2023-02-11T00:49:18.390Z,53.68
2023-02-11T00:51:47.552Z,53.83
2023-02-11T00:54:14.261Z,54.08
2023-02-11T00:56:40.913Z,53.58
2023-02-11T00:59:07.584Z,54.27
2023-02-11T01:01:34.309Z,54.34
2023-02-11T01:04:02.334Z,54.46
2023-02-11T01:06:29.006Z,54.63
2023-02-11T01:08:55.711Z,54.90
2023-02-11T01:11:23.239Z,54.39
2023-02-11T01:13:50.047Z,54.55
2023-02-11T01:16:17.313Z,54.59
2023-02-11T01:18:46.965Z,54.41
2023-02-11T01:21:14.453Z,54.56
2023-02-11T01:23:41.136Z,55.08
2023-02-11T01:26:07.837Z,54.86
2023-02-11T01:28:34.602Z,55.10
2023-02-11T01:31:01.844Z,54.82
2023-02-11T01:33:28.653Z,55.67
2023-02-11T01:35:55.257Z,55.55
2023-02-11T01:38:24.203Z,55.03
2023-02-11T01:40:55.081Z,53.82
2023-02-11T01:43:22.017Z,54.43
2023-02-11T01:45:48.920Z,53.95
2023-02-11T01:48:46.888Z,54.91
2023-02-11T01:51:17.075Z,53.41
2023-02-11T01:53:44.317Z,52.89
2023-02-11T01:56:10.934Z,52.93
2023-02-11T01:58:39.117Z,52.66
2023-02-11T02:01:05.762Z,53.53
2023-02-11T02:03:32.441Z,53.49
2023-02-11T02:06:04.001Z,51.74
2023-02-11T02:08:41.214Z,54.17
2023-02-11T02:11:07.974Z,53.50
2023-02-11T02:13:34.851Z,53.06
2023-02-11T02:16:03.448Z,53.75
2023-02-11T02:18:51.593Z,53.03
2023-02-11T02:21:36.033Z,53.29
2023-02-11T02:24:20.911Z,52.60
2023-02-11T02:27:16.417Z,52.71
2023-02-11T02:29:58.155Z,52.24
2023-02-11T02:32:43.346Z,51.94
2023-02-11T02:35:36.113Z,51.09
2023-02-11T02:38:11.183Z,51.93
2023-02-11T02:40:45.330Z,51.39
2023-02-11T02:43:12.035Z,50.95
2023-02-11T02:45:38.700Z,52.90
2023-02-11T02:48:05.374Z,53.27
2023-02-11T02:50:36.488Z,53.26
2023-02-11T02:53:18.134Z,51.71
2023-02-11T02:56:04.278Z,52.20
2023-02-11T02:58:54.416Z,52.92
2023-02-11T03:01:29.967Z,53.56
2023-02-11T03:03:59.493Z,52.78
2023-02-11T03:06:34.457Z,53.10
2023-02-11T03:09:09.015Z,53.62
2023-02-11T03:11:36.991Z,52.83
2023-02-11T03:14:03.988Z,53.08
2023-02-11T03:16:30.728Z,53.37
2023-02-11T03:19:01.165Z,53.34
2023-02-11T03:21:27.769Z,53.44
2023-02-11T03:23:54.937Z,54.06
2023-02-11T03:26:23.797Z,53.89
2023-02-11T03:29:10.363Z,53.76
2023-02-11T03:31:55.428Z,53.30
2023-02-11T03:34:44.041Z,53.71
2023-02-11T03:37:18.043Z,53.63
2023-02-11T03:39:47.806Z,53.53
2023-02-11T03:42:14.562Z,53.84
2023-02-11T03:44:44.309Z,53.68
2023-02-11T03:47:10.965Z,53.54
2023-02-11T03:49:38.179Z,54.39
2023-02-11T03:52:04.921Z,53.96
2023-02-11T03:54:31.719Z,54.33
2023-02-11T03:57:00.124Z,54.03
2023-02-11T03:59:26.774Z,54.31
2023-02-11T04:01:53.449Z,54.48
2023-02-11T04:04:20.356Z,54.28
2023-02-11T04:06:47.059Z,54.01
2023-02-11T04:09:13.715Z,54.68
2023-02-11T04:11:40.357Z,54.70
2023-02-11T04:14:07.010Z,54.36
2023-02-11T04:16:33.666Z,54.14
2023-02-11T04:19:00.408Z,54.14
2023-02-11T04:21:27.070Z,54.85
2023-02-11T04:23:53.782Z,54.19
2023-02-11T04:26:20.397Z,53.96
2023-02-11T04:28:47.066Z,53.99
2023-02-11T04:31:13.761Z,54.86
2023-02-11T04:33:40.478Z,54.41
2023-02-11T04:36:07.494Z,54.40
2023-02-11T04:38:34.108Z,54.63
2023-02-11T04:41:00.733Z,54.42
2023-02-11T04:43:27.430Z,54.29
2023-02-11T04:45:57.506Z,53.76
2023-02-11T04:48:24.508Z,53.77
2023-02-11T04:50:51.204Z,53.18
2023-02-11T04:53:17.813Z,53.07
2023-02-11T04:55:44.425Z,52.99
2023-02-11T04:58:11.086Z,52.75
2023-02-11T05:00:37.725Z,52.45
2023-02-11T05:03:04.353Z,52.86
2023-02-11T05:05:31.019Z,53.92
2023-02-11T05:07:57.642Z,53.45
2023-02-11T05:10:24.241Z,53.44
2023-02-11T05:12:50.868Z,52.97
2023-02-11T05:15:17.547Z,52.71
2023-02-11T05:17:44.158Z,53.34
2023-02-11T05:20:10.885Z,53.57
2023-02-11T05:22:37.468Z,53.53
2023-02-11T05:25:04.153Z,54.06
2023-02-11T05:27:30.745Z,54.02
2023-02-11T05:29:57.374Z,53.26
2023-02-11T05:32:23.977Z,53.02
2023-02-11T05:34:50.680Z,54.13
2023-02-11T05:37:17.366Z,54.13
2023-02-11T05:39:43.990Z,53.47
2023-02-11T05:42:10.657Z,53.79
2023-02-11T05:44:37.337Z,53.58
2023-02-11T05:47:03.993Z,54.19
2023-02-11T05:49:30.613Z,53.33
2023-02-11T05:51:57.500Z,53.93
2023-02-11T05:54:24.143Z,53.91
2023-02-11T05:56:50.781Z,54.06
2023-02-11T05:59:17.399Z,53.83
2023-02-11T06:01:44.003Z,53.49
2023-02-11T06:04:10.664Z,54.20
2023-02-11T06:06:37.351Z,53.87
2023-02-11T06:09:04.256Z,53.95
2023-02-11T06:11:30.890Z,53.40
2023-02-11T06:13:57.571Z,53.63
2023-02-11T06:16:24.285Z,54.47
2023-02-11T06:18:50.918Z,54.19
2023-02-11T06:21:17.601Z,54.46
2023-02-11T06:23:44.243Z,54.55
2023-02-11T06:26:16.458Z,54.13
2023-02-11T06:28:43.151Z,53.78
2023-02-11T06:31:10.017Z,54.14
2023-02-11T06:33:36.703Z,54.41
2023-02-11T06:36:03.697Z,53.90
2023-02-11T06:38:30.296Z,53.96
2023-02-11T06:40:56.947Z,54.34
2023-02-11T06:43:23.592Z,54.46
2023-02-11T06:45:56.051Z,54.13
2023-02-11T06:48:23.049Z,54.08
2023-02-11T06:50:49.672Z,53.89
2023-02-11T06:53:16.325Z,54.40
2023-02-11T06:55:43.171Z,54.87
2023-02-11T06:58:09.819Z,54.18
2023-02-11T07:00:36.698Z,54.15
2023-02-11T07:03:03.445Z,53.70
2023-02-11T07:05:30.092Z,53.90
2023-02-11T07:07:57.038Z,54.36
2023-02-11T07:10:23.763Z,54.59
2023-02-11T07:12:50.379Z,54.98
2023-02-11T07:15:17.020Z,54.64
2023-02-11T07:17:43.610Z,55.39
2023-02-11T07:20:10.653Z,55.95
2023-02-11T07:22:37.267Z,56.13
2023-02-11T07:25:04.030Z,55.46
2023-02-11T07:27:30.676Z,55.15
2023-02-11T07:29:57.293Z,55.23
2023-02-11T07:32:23.956Z,54.67
2023-02-11T07:34:50.747Z,55.25
2023-02-11T07:37:17.446Z,55.43
2023-02-11T07:39:44.102Z,55.52
2023-02-11T07:42:10.768Z,55.76
2023-02-11T07:44:37.388Z,55.20
2023-02-11T07:47:04.101Z,55.60
2023-02-11T07:49:30.782Z,56.14
2023-02-11T07:51:57.531Z,55.82
2023-02-11T07:54:24.209Z,55.08
2023-02-11T07:56:50.849Z,55.37
2023-02-11T07:59:17.496Z,55.65
2023-02-11T08:01:44.179Z,55.40
2023-02-11T08:04:10.956Z,54.88
2023-02-11T08:06:41.169Z,55.85
2023-02-11T08:09:08.037Z,55.83
2023-02-11T08:11:34.647Z,55.70
2023-02-11T08:14:01.400Z,56.52
2023-02-11T08:16:30.239Z,56.05
2023-02-11T08:18:57.667Z,56.41
2023-02-11T08:21:24.576Z,56.13
2023-02-11T08:23:51.255Z,56.00
2023-02-11T08:26:19.499Z,56.10
2023-02-11T08:28:46.711Z,56.79
2023-02-11T08:31:21.058Z,56.64
2023-02-11T08:33:47.730Z,56.77
2023-02-11T08:36:16.554Z,57.22
2023-02-11T08:38:43.161Z,56.56
2023-02-11T08:41:09.848Z,56.62
2023-02-11T08:43:36.594Z,56.67
2023-02-11T08:46:03.392Z,56.40
2023-02-11T08:48:30.118Z,56.42
2023-02-11T08:50:56.979Z,56.52
2023-02-11T08:53:23.604Z,56.66
2023-02-11T08:55:51.239Z,56.55
2023-02-11T08:58:19.174Z,56.30
2023-02-11T09:00:46.465Z,57.00
2023-02-11T09:03:13.892Z,56.92
2023-02-11T09:05:47.853Z,56.57
2023-02-11T09:08:14.492Z,55.24
2023-02-11T09:10:41.149Z,55.13
2023-02-11T09:13:07.856Z,55.13
2023-02-11T09:15:34.541Z,54.74
2023-02-11T09:18:01.347Z,54.04
2023-02-11T09:20:28.043Z,54.04
2023-02-11T09:22:54.899Z,54.88
2023-02-11T09:25:21.552Z,53.71
2023-02-11T09:27:48.241Z,53.61
2023-02-11T09:30:15.342Z,52.39
2023-02-11T09:32:41.959Z,52.51
2023-02-11T09:35:08.702Z,51.64
2023-02-11T09:37:37.354Z,53.41
2023-02-11T09:40:04.487Z,52.08
2023-02-11T09:42:43.141Z,50.77
2023-02-11T09:45:24.206Z,50.88
2023-02-11T09:47:59.460Z,50.94
2023-02-11T09:50:28.116Z,50.17
2023-02-11T09:53:00.556Z,50.09
2023-02-11T09:55:35.624Z,49.72
2023-02-11T09:58:03.367Z,49.40
2023-02-11T10:01:08.354Z,49.94
2023-02-11T10:03:46.830Z,49.20
2023-02-11T10:06:31.795Z,48.98
2023-02-11T10:09:04.209Z,48.52
2023-02-11T10:11:36.805Z,48.55
2023-02-11T10:14:15.462Z,48.63
2023-02-11T10:17:21.636Z,48.84
2023-02-11T10:20:06.484Z,48.50
2023-02-11T10:22:36.692Z,48.33
2023-02-11T10:25:13.008Z,48.56
2023-02-11T10:27:39.909Z,48.37
2023-02-11T10:30:07.880Z,48.45
2023-02-11T10:32:53.071Z,48.81
2023-02-11T10:35:21.632Z,48.72
2023-02-11T10:37:48.637Z,48.40
2023-02-11T10:40:19.569Z,48.51
2023-02-11T10:42:55.665Z,48.39
2023-02-11T10:45:30.431Z,48.38
2023-02-11T10:47:57.076Z,48.10
2023-02-11T10:50:31.281Z,47.86
2023-02-11T10:53:19.998Z,47.57
2023-02-11T10:55:56.394Z,47.82
2023-02-11T10:59:05.593Z,47.89
2023-02-11T11:01:52.857Z,47.59
2023-02-11T11:04:27.276Z,47.74
2023-02-11T11:06:53.983Z,47.74
2023-02-11T11:09:28.030Z,47.91
2023-02-11T11:11:54.689Z,47.44
2023-02-11T11:14:21.426Z,47.52
2023-02-11T11:16:54.623Z,47.83
2023-02-11T11:19:24.866Z,47.88
2023-02-11T11:21:55.759Z,48.18
2023-02-11T11:24:29.428Z,48.47
2023-02-11T11:26:57.662Z,48.19
2023-02-11T11:29:50.424Z,48.25
2023-02-11T11:32:28.037Z,47.74
2023-02-11T11:34:55.797Z,47.96
2023-02-11T11:37:22.272Z,48.14
2023-02-11T11:39:57.935Z,47.74
2023-02-11T11:42:29.959Z,47.43
2023-02-11T11:45:18.748Z,47.15
2023-02-11T11:47:48.441Z,46.58
2023-02-11T11:50:21.900Z,46.62
2023-02-11T11:53:05.137Z,46.55
2023-02-11T11:56:02.623Z,46.63
2023-02-11T11:58:29.430Z,46.58
2023-02-11T12:01:15.217Z,46.47
2023-02-11T12:04:09.659Z,46.16
2023-02-11T12:07:03.444Z,45.64
2023-02-11T12:09:38.665Z,46.28
2023-02-11T12:12:25.881Z,45.29
2023-02-11T12:15:14.178Z,44.99
2023-02-11T12:17:52.266Z,45.15
2023-02-11T12:20:56.515Z,45.58
2023-02-11T12:23:47.610Z,44.37
2023-02-11T12:26:20.489Z,43.97
2023-02-11T12:28:53.091Z,44.48
2023-02-11T12:31:34.882Z,44.21
2023-02-11T12:34:33.957Z,44.05
2023-02-11T12:37:10.896Z,43.87
2023-02-11T12:39:54.353Z,43.58
2023-02-11T12:42:38.630Z,43.06
2023-02-11T12:45:12.001Z,43.42
2023-02-11T12:48:00.896Z,44.17
2023-02-11T12:50:36.009Z,43.89
2023-02-11T12:53:28.899Z,43.55
2023-02-11T12:56:00.942Z,44.43
2023-02-11T12:58:42.799Z,43.26
2023-02-11T13:01:16.086Z,43.33
2023-02-11T13:03:56.311Z,43.18
2023-02-11T13:06:28.330Z,42.69
2023-02-11T13:08:59.529Z,43.23
2023-02-11T13:11:47.297Z,43.45
2023-02-11T13:14:32.305Z,43.15
2023-02-11T13:16:59.055Z,42.61
2023-02-11T13:19:37.633Z,42.79
2023-02-11T13:22:04.127Z,43.13
2023-02-11T13:24:42.454Z,43.07
2023-02-11T13:27:48.236Z,42.76
2023-02-11T13:30:33.514Z,42.58
2023-02-11T13:33:00.109Z,41.94
2023-02-11T13:35:33.728Z,41.67
2023-02-11T13:38:03.728Z,42.43
2023-02-11T13:40:38.199Z,41.78
2023-02-11T13:43:06.044Z,42.42
2023-02-11T13:45:42.877Z,42.89
2023-02-11T13:48:22.580Z,42.31
2023-02-11T13:50:50.815Z,42.38
2023-02-11T13:53:17.622Z,42.05
2023-02-11T13:55:48.946Z,42.21
2023-02-11T13:58:16.028Z,42.22
2023-02-11T14:00:47.658Z,42.04
2023-02-11T14:03:14.169Z,42.46
2023-02-11T14:05:40.771Z,42.62
2023-02-11T14:08:10.265Z,42.08
2023-02-11T14:10:42.826Z,42.33
2023-02-11T14:13:54.284Z,42.43
2023-02-11T14:16:36.388Z,42.63
2023-02-11T14:19:04.418Z,42.37
2023-02-11T14:21:38.349Z,41.75
2023-02-11T14:24:04.973Z,41.97
2023-02-11T14:26:52.033Z,41.49
2023-02-11T14:29:43.897Z,41.90
2023-02-11T14:32:32.699Z,41.76
2023-02-11T14:35:09.904Z,41.96
2023-02-11T14:37:44.379Z,41.86
2023-02-11T14:40:16.673Z,40.85
2023-02-11T14:42:43.313Z,40.95
2023-02-11T14:45:11.366Z,41.00
2023-02-11T14:48:05.129Z,40.87
2023-02-11T14:50:54.262Z,40.95
2023-02-11T14:53:24.543Z,40.86
2023-02-11T14:55:52.188Z,41.22
2023-02-11T14:58:28.953Z,41.18
2023-02-11T15:01:06.422Z,41.71
2023-02-11T15:03:37.777Z,41.84
2023-02-11T15:06:18.026Z,42.45
2023-02-11T15:09:02.885Z,42.39
2023-02-11T15:11:31.664Z,42.02
2023-02-11T15:13:59.809Z,42.11
2023-02-11T15:16:27.217Z,42.18
2023-02-11T15:18:59.453Z,42.52
2023-02-11T15:21:27.747Z,42.46
2023-02-11T15:24:00.590Z,42.38
2023-02-11T15:26:27.345Z,42.36
2023-02-11T15:28:53.971Z,42.13
2023-02-11T15:31:22.526Z,42.59
2023-02-11T15:33:49.696Z,43.12
2023-02-11T15:36:16.752Z,42.90
2023-02-11T15:38:43.468Z,42.92
2023-02-11T15:41:33.984Z,43.05
2023-02-11T15:44:00.945Z,42.50
2023-02-11T15:46:37.729Z,42.52
2023-02-11T15:49:04.431Z,42.54
2023-02-11T15:51:32.503Z,42.19
2023-02-11T15:54:00.645Z,42.36
2023-02-11T15:56:33.702Z,42.55
2023-02-11T15:59:07.413Z,42.96
2023-02-11T16:01:35.175Z,44.66
2023-02-11T16:04:02.228Z,45.82
2023-02-11T16:06:41.552Z,45.04
2023-02-11T16:09:08.010Z,45.99
2023-02-11T16:11:36.424Z,45.75
2023-02-11T16:14:19.426Z,45.11
2023-02-11T16:16:46.698Z,45.64
2023-02-11T16:19:13.349Z,46.40
2023-02-11T16:21:41.844Z,46.59
2023-02-11T16:24:14.878Z,47.44
2023-02-11T16:26:41.522Z,47.17
2023-02-11T16:29:11.768Z,46.08
2023-02-11T16:31:40.273Z,45.84
2023-02-11T16:34:18.114Z,43.45
2023-02-11T16:36:45.229Z,42.65
2023-02-11T16:39:11.926Z,45.78
2023-02-11T16:41:38.767Z,47.41
2023-02-11T16:44:05.423Z,43.61
2023-02-11T16:46:32.135Z,42.64
2023-02-11T16:48:59.065Z,46.33
2023-02-11T16:51:25.685Z,47.21
2023-02-11T16:53:52.342Z,42.97
2023-02-11T16:56:19.131Z,44.42
2023-02-11T16:58:45.778Z,45.40
2023-02-11T17:01:14.073Z,44.02
2023-02-11T17:03:41.064Z,44.87
2023-02-11T17:06:10.637Z,44.71
2023-02-11T17:08:39.823Z,44.68
2023-02-11T17:11:06.758Z,45.96
2023-02-11T17:13:33.653Z,45.34
2023-02-11T17:16:00.327Z,47.49
2023-02-11T17:18:26.995Z,47.08
2023-02-11T17:20:53.651Z,47.82
2023-02-11T17:23:20.305Z,47.99
2023-02-11T17:25:46.913Z,48.96
2023-02-11T17:28:13.633Z,48.46
2023-02-11T17:30:40.776Z,48.09
2023-02-11T17:33:07.386Z,49.67
2023-02-11T17:35:33.976Z,49.49
2023-02-11T17:38:00.621Z,47.89
2023-02-11T17:40:27.269Z,47.48
2023-02-11T17:42:53.949Z,48.18
2023-02-11T17:45:22.386Z,47.48
2023-02-11T17:47:49.210Z,48.14
2023-02-11T17:50:15.909Z,48.19
2023-02-11T17:52:42.574Z,48.42
2023-02-11T17:55:09.215Z,47.80
2023-02-11T17:57:35.832Z,49.12
2023-02-11T18:00:02.866Z,48.23
2023-02-11T18:02:29.509Z,48.38
2023-02-11T18:04:56.208Z,48.82
2023-02-11T18:07:23.182Z,49.83
2023-02-11T18:09:49.877Z,48.90
2023-02-11T18:12:16.530Z,49.32
2023-02-11T18:14:43.175Z,49.43
2023-02-11T18:17:09.874Z,48.40
2023-02-11T18:19:36.527Z,48.53
2023-02-11T18:22:03.251Z,48.90
2023-02-11T18:24:29.966Z,49.49
2023-02-11T18:26:56.644Z,49.10
2023-02-11T18:29:23.298Z,49.51
2023-02-11T18:31:50.069Z,51.32
2023-02-11T18:34:16.830Z,51.22
2023-02-11T18:36:43.488Z,50.20
2023-02-11T18:39:10.117Z,49.96
2023-02-11T18:41:36.746Z,49.74
2023-02-11T18:44:03.733Z,49.76
2023-02-11T18:46:30.581Z,50.26
2023-02-11T18:48:57.294Z,49.93
2023-02-11T18:51:23.997Z,50.79
2023-02-11T18:53:50.660Z,50.29
2023-02-11T18:56:19.629Z,50.26
2023-02-11T18:58:46.744Z,50.50
2023-02-11T19:01:21.080Z,50.12
2023-02-11T19:03:47.890Z,50.07
2023-02-11T19:06:18.907Z,50.58
2023-02-11T19:08:45.861Z,50.37
2023-02-11T19:11:12.936Z,50.54
2023-02-11T19:13:39.762Z,50.79
2023-02-11T19:16:11.464Z,50.93
2023-02-11T19:18:38.362Z,51.38
2023-02-11T19:21:09.389Z,51.59
2023-02-11T19:23:36.123Z,51.35
2023-02-11T19:26:02.748Z,51.12
2023-02-11T19:28:29.448Z,51.11
2023-02-11T19:30:56.264Z,52.13
2023-02-11T19:33:22.968Z,52.45
2023-02-11T19:35:49.802Z,52.30
2023-02-11T19:38:16.596Z,52.15
2023-02-11T19:40:43.224Z,52.25
2023-02-11T19:43:09.940Z,52.31
2023-02-11T19:45:39.611Z,52.58
2023-02-11T19:48:06.372Z,52.89
2023-02-11T19:50:33.074Z,53.25
2023-02-11T19:52:59.726Z,53.13
2023-02-11T19:55:26.417Z,53.54
2023-02-11T19:57:53.047Z,53.61
2023-02-11T20:00:20.091Z,52.79
2023-02-11T20:02:46.887Z,52.91
2023-02-11T20:05:13.590Z,53.00
2023-02-11T20:07:40.319Z,53.55
2023-02-11T20:10:07.732Z,53.63
2023-02-11T20:12:34.370Z,52.89
2023-02-11T20:15:01.171Z,53.62
2023-02-11T20:17:27.817Z,53.79
2023-02-11T20:19:54.509Z,52.85
2023-02-11T20:22:21.142Z,53.20
2023-02-11T20:24:47.819Z,53.76
2023-02-11T20:27:14.457Z,52.82
2023-02-11T20:29:41.080Z,52.98
2023-02-11T20:32:08.034Z,53.28
2023-02-11T20:34:34.945Z,52.99
2023-02-11T20:37:01.629Z,53.68
2023-02-11T20:39:28.333Z,53.57
2023-02-11T20:41:54.976Z,53.04
2023-02-11T20:44:21.795Z,53.44
2023-02-11T20:46:48.493Z,53.11
2023-02-11T20:49:17.125Z,53.54
2023-02-11T20:51:43.966Z,54.04
2023-02-11T20:54:17.936Z,53.75
2023-02-11T20:56:47.741Z,52.90
2023-02-11T20:59:14.809Z,53.87
2023-02-11T21:01:42.900Z,53.16
2023-02-11T21:04:14.413Z,53.54
2023-02-11T21:06:45.669Z,53.29
2023-02-11T21:09:13.932Z,54.17
2023-02-11T21:11:40.822Z,53.47
2023-02-11T21:14:07.499Z,53.05
2023-02-11T21:16:34.199Z,53.51
2023-02-11T21:19:01.264Z,53.30
2023-02-11T21:21:28.000Z,53.27
2023-02-11T21:23:54.742Z,53.47
2023-02-11T21:26:21.589Z,53.03
2023-02-11T21:28:48.380Z,53.29
2023-02-11T21:31:19.976Z,53.74
2023-02-11T21:33:46.755Z,53.82
2023-02-11T21:36:13.354Z,54.08
2023-02-11T21:38:40.033Z,53.84
2023-02-11T21:41:06.760Z,53.57
2023-02-11T21:43:33.468Z,54.13
2023-02-11T21:46:00.139Z,53.24
2023-02-11T21:48:26.799Z,52.87
2023-02-11T21:50:53.501Z,53.07
2023-02-11T21:53:20.117Z,52.57
2023-02-11T21:55:46.790Z,53.09
2023-02-11T21:58:13.447Z,52.86
2023-02-11T22:00:40.133Z,52.76
2023-02-11T22:03:06.824Z,53.10
2023-02-11T22:05:33.483Z,53.00
2023-02-11T22:08:00.108Z,52.57
2023-02-11T22:10:26.731Z,52.41
2023-02-11T22:12:53.644Z,52.43
2023-02-11T22:15:20.279Z,52.16
2023-02-11T22:17:46.947Z,52.89
2023-02-11T22:20:13.576Z,53.59
2023-02-11T22:22:40.245Z,53.30
2023-02-11T22:25:07.291Z,53.61
2023-02-11T22:27:33.935Z,53.87
2023-02-11T22:30:00.543Z,53.54
2023-02-11T22:32:27.198Z,54.04
2023-02-11T22:34:53.826Z,53.81
2023-02-11T22:37:20.590Z,54.08
2023-02-11T22:39:47.373Z,53.50
2023-02-11T22:42:14.022Z,53.45
2023-02-11T22:44:40.686Z,53.76
2023-02-11T22:47:07.379Z,53.40
2023-02-11T22:49:34.066Z,53.23
2023-02-11T22:52:00.737Z,53.28
2023-02-11T22:54:27.387Z,53.03
2023-02-11T22:56:54.002Z,52.89
2023-02-11T22:59:20.783Z,53.00
2023-02-11T23:01:47.694Z,52.37
2023-02-11T23:04:15.205Z,52.50
2023-02-11T23:06:41.931Z,52.21
2023-02-11T23:09:09.414Z,52.78
2023-02-11T23:11:36.038Z,52.72
2023-02-11T23:14:02.767Z,53.40
2023-02-11T23:16:33.148Z,53.49
2023-02-11T23:19:00.730Z,53.50
2023-02-11T23:21:29.107Z,53.82
2023-02-11T23:23:57.579Z,54.21
2023-02-11T23:26:24.336Z,53.83
2023-02-11T23:28:50.991Z,53.70
2023-02-11T23:31:18.841Z,53.21
2023-02-11T23:33:45.616Z,53.03
2023-02-11T23:36:13.564Z,53.66
2023-02-11T23:38:40.229Z,53.17
2023-02-11T23:41:06.857Z,53.27
2023-02-11T23:43:33.459Z,53.11
2023-02-11T23:46:00.168Z,52.87
2023-02-11T23:48:26.993Z,52.95
2023-02-11T23:50:53.631Z,52.92
2023-02-11T23:53:20.272Z,52.94
2023-02-11T23:55:46.920Z,53.22
2023-02-11T23:58:13.993Z,53.71
